Plattsmouth, NE

8:07 PM CST on November 16, 2019 (GMT -0600)
Plattsmouth Municipal

Weather History for KPMV - October, 2019

Change the Weather History Date:

Sunday, October 20, 2019

  Actual Average (KOFF) Record (KOFF)
Temperature  
Mean Temperature 54 °F -  
Max Temperature 62 °F 61 °F 86 °F (2003)
Min Temperature 46 °F 41 °F 29 °F (2006)
Degree Days  
Heating Degree Days 11    
Growing Degree Days 4 (Base 50)    
Moisture  
Dew Point 48 °F    
Average Humidity 81    
Maximum Humidity 100    
Minimum Humidity 50    
Precipitation  
Precipitation 0.06 in - - ()
Sea Level Pressure  
Sea Level Pressure 29.71 in    
Wind  
Wind Speed 10 mph (SE)    
Max Wind Speed 22 mph    
Max Gust Speed 32 mph    
Visibility 10 miles    
Events Rain , Thunderstorm    
Averages and records for this station are not official NWS values.
T = Trace of Precipitation, MM = Missing Value Source: NWS Daily Summary

Daily Weather History Graph

Daily Weather History Graph

Search for Another Location

Airport or City:

Astronomy

Oct. 20, 2019 Rise Set
Actual Time 7:40 AM CDT 6:35 PM CDT
Civil Twilight 7:12 AM CDT 7:03 PM CDT
Nautical Twilight 6:40 AM CDT 7:35 PM CDT
Astronomical Twilight 6:08 AM CDT 8:07 PM CDT
Moon 11:44 PM CDT (10/20) 2:11 PM CDT (10/20)
Length of Visible Light 11h 51m
Length of Day
10h 55m
Waning Gibbous, 59% of the Moon is Illuminated
Oct 20
Waning Gibbous
Oct 21
Last Quarter
Oct 27
New
Nov 4
First Quarter
Nov 12
Full

Hourly Weather History & Observations

Time (CDT) Temp. Windchill Dew Point Humidity Pressure Visibility Wind Dir Wind Speed Gust Speed Precip Events Conditions
12:15 AM 50.0 °F - 43.2 °F 77% 29.80 in 10.0 mi SSE 5.8 mph - N/A   Clear
12:35 AM 49.3 °F - 43.7 °F 81% 29.80 in 10.0 mi SSE 5.8 mph - N/A   Clear
12:55 AM 49.1 °F - 44.1 °F 83% 29.79 in 10.0 mi SSE 6.9 mph - N/A   Clear
1:15 AM 48.6 °F - 44.8 °F 87% 29.79 in 10.0 mi SSE 6.9 mph - N/A   Clear
1:35 AM 47.7 °F - 45.1 °F 91% 29.79 in 10.0 mi SSE 5.8 mph - N/A   Clear
1:55 AM 48.2 °F - 45.1 °F 89% 29.79 in 10.0 mi SSE 5.8 mph - N/A   Clear
2:15 AM 48.4 °F - 45.5 °F 90% 29.79 in 10.0 mi SSE 9.2 mph - N/A   Clear
2:35 AM 48.4 °F - 45.0 °F 88% 29.79 in 10.0 mi SSE 9.2 mph - N/A   Clear
2:55 AM 48.4 °F - 44.8 °F 87% 29.79 in 10.0 mi SSE 9.2 mph - N/A   Clear
3:15 AM 48.4 °F - 44.2 °F 86% 29.79 in 10.0 mi SSE 8.1 mph - N/A   Clear
3:35 AM 48.0 °F - 44.2 °F 87% 29.79 in 10.0 mi SSE 6.9 mph - N/A   Clear
3:55 AM 47.7 °F - 45.0 °F 90% 29.79 in 10.0 mi SSE 8.1 mph - N/A   Clear
4:15 AM 46.9 °F - 45.0 °F 93% 29.79 in 10.0 mi SSE 6.9 mph - N/A   Clear
4:35 AM 47.5 °F - 45.1 °F 92% 29.78 in 10.0 mi SSE 8.1 mph - N/A   Clear
4:55 AM 47.7 °F - 45.3 °F 92% 29.79 in 10.0 mi SSE 8.1 mph - N/A   Clear
5:15 AM 47.5 °F - 45.9 °F 94% 29.78 in 10.0 mi SSE 8.1 mph - N/A   Clear
5:35 AM 46.9 °F - 45.3 °F 94% 29.78 in 10.0 mi SE 8.1 mph - N/A   Clear
5:55 AM 46.0 °F 41.9 °F 45.5 °F 98% 29.78 in 10.0 mi SSE 8.1 mph - N/A   Clear
6:15 AM 46.9 °F - 46.6 °F 99% 29.79 in 10.0 mi SE 6.9 mph - N/A   Clear
6:35 AM 47.3 °F - 47.3 °F 100% 29.78 in 10.0 mi SSE 6.9 mph - N/A   Clear
6:55 AM 47.7 °F - 47.7 °F 100% 29.79 in 10.0 mi SE 6.9 mph - N/A   Clear
7:15 AM 48.2 °F - 48.2 °F 100% 29.79 in 10.0 mi SE 8.1 mph - N/A   Clear
7:35 AM 48.4 °F - 48.4 °F 100% 29.78 in 10.0 mi SE 9.2 mph - N/A   Clear
7:55 AM 48.4 °F - 48.4 °F 100% 29.77 in 10.0 mi SE 9.2 mph - N/A   Clear
8:15 AM 48.4 °F - 48.4 °F 100% 29.78 in 10.0 mi SE 9.2 mph - N/A   Clear
8:35 AM 49.5 °F - 49.5 °F 100% 29.78 in 10.0 mi SE 9.2 mph - N/A   Clear
8:55 AM 50.5 °F - 50.5 °F 100% 29.79 in 10.0 mi SE 8.1 mph - N/A   Clear
9:15 AM 50.9 °F - 50.9 °F 100% 29.79 in 10.0 mi SE 9.2 mph - N/A   Clear
9:35 AM 51.4 °F - 51.1 °F 99% 29.80 in 10.0 mi SSE 11.5 mph - N/A   Clear
9:55 AM 51.8 °F - 51.4 °F 99% 29.80 in 10.0 mi SE 10.4 mph 19.6 mph N/A   Clear
10:15 AM 52.2 °F - 51.8 °F 99% 29.79 in 10.0 mi SE 11.5 mph - N/A   Clear
10:35 AM 52.5 °F - 52.2 °F 99% 29.78 in 10.0 mi SE 11.5 mph - N/A   Clear
10:55 AM 53.4 °F - 52.7 °F 97% 29.78 in 10.0 mi SE 11.5 mph 17.3 mph N/A   Clear
11:15 AM 56.1 °F - 54.0 °F 92% 29.77 in 10.0 mi SE 13.8 mph 18.4 mph N/A   Clear
11:35 AM 59.0 °F - 54.0 °F 83% 29.75 in 10.0 mi SE 16.1 mph - N/A   Clear
11:55 AM 60.8 °F - 52.7 °F 75% 29.73 in 10.0 mi SE 21.9 mph 27.6 mph N/A   Clear
12:15 PM 61.7 °F - 50.4 °F 66% 29.72 in 10.0 mi SE 16.1 mph 26.5 mph N/A   Clear
12:35 PM 62.2 °F - 49.3 °F 63% 29.71 in 10.0 mi SE 20.7 mph 32.2 mph N/A   Clear
12:55 PM 61.5 °F - 48.4 °F 62% 29.71 in 10.0 mi SE 18.4 mph 29.9 mph N/A   Clear
1:15 PM 62.2 °F - 48.4 °F 60% 29.73 in 10.0 mi SSE 15.0 mph 20.7 mph N/A   Clear
1:35 PM 62.1 °F - 47.1 °F 58% 29.72 in 10.0 mi SSE 15.0 mph 27.6 mph N/A   Scattered Clouds
1:55 PM 60.8 °F - 49.3 °F 66% 29.71 in 10.0 mi SSE 11.5 mph 21.9 mph N/A   Mostly Cloudy
2:15 PM 60.3 °F - 49.5 °F 68% 29.70 in 10.0 mi SSE 9.2 mph 18.4 mph N/A   Overcast
2:35 PM 60.3 °F - 49.6 °F 68% 29.70 in 10.0 mi SSE 11.5 mph - N/A   Overcast
2:55 PM 60.8 °F - 48.9 °F 65% 29.68 in 10.0 mi ESE 10.4 mph - N/A   Overcast
3:15 PM 60.8 °F - 47.3 °F 61% 29.66 in 10.0 mi ESE 13.8 mph - N/A   Overcast
3:35 PM 61.0 °F - 45.9 °F 58% 29.65 in 10.0 mi SE 17.3 mph 25.3 mph N/A   Overcast
3:55 PM 61.2 °F - 44.8 °F 55% 29.64 in 10.0 mi SE 19.6 mph 28.8 mph N/A   Overcast
4:15 PM 61.0 °F - 44.4 °F 54% 29.64 in 10.0 mi ESE 19.6 mph 27.6 mph N/A   Overcast
4:35 PM 60.8 °F - 42.3 °F 50% 29.63 in 10.0 mi ESE 18.4 mph 28.8 mph N/A   Mostly Cloudy
4:55 PM 60.8 °F - 42.4 °F 51% 29.61 in 10.0 mi ESE 20.7 mph 26.5 mph N/A   Clear
5:15 PM 60.4 °F - 42.6 °F 52% 29.60 in 10.0 mi ESE 21.9 mph 32.2 mph N/A   Scattered Clouds
5:35 PM 59.9 °F - 43.2 °F 54% 29.61 in 10.0 mi ESE 19.6 mph 28.8 mph N/A   Mostly Cloudy
5:55 PM 59.2 °F - 43.5 °F 56% 29.62 in 10.0 mi SE 11.5 mph 25.3 mph N/A   Mostly Cloudy
6:15 PM 58.3 °F - 44.1 °F 59% 29.63 in 10.0 mi SE 15.0 mph 20.7 mph N/A   Scattered Clouds
6:35 PM 58.1 °F - 44.2 °F 60% 29.63 in 10.0 mi SE 10.4 mph 18.4 mph N/A   Mostly Cloudy
6:55 PM 57.7 °F - 44.6 °F 62% 29.63 in 10.0 mi SE 11.5 mph - N/A   Overcast
7:15 PM 57.6 °F - 44.4 °F 62% 29.62 in 10.0 mi SE 12.7 mph 18.4 mph N/A   Overcast
7:35 PM 57.2 °F - 44.8 °F 63% 29.63 in 10.0 mi SE 12.7 mph 18.4 mph N/A   Overcast
7:55 PM 57.2 °F - 45.0 °F 64% 29.62 in 10.0 mi SE 15.0 mph 21.9 mph N/A   Overcast
8:15 PM 57.2 °F - 45.9 °F 66% 29.61 in 10.0 mi SE 15.0 mph 21.9 mph N/A Rain Light Rain
8:35 PM 57.0 °F - 47.3 °F 70% 29.61 in 10.0 mi SE 15.0 mph 21.9 mph N/A   Overcast
8:55 PM 56.5 °F - 49.3 °F 77% 29.61 in 10.0 mi SE 13.8 mph - 0.01 in Rain , Thunderstorm Rain
9:15 PM 54.5 °F - 51.3 °F 89% 29.61 in 7.0 mi SE 9.2 mph 17.3 mph 0.03 in Rain , Thunderstorm Rain
9:35 PM 53.6 °F - 51.8 °F 94% 29.63 in 10.0 mi SSE 8.1 mph - 0.05 in Thunderstorm Overcast
9:55 PM 54.5 °F - 52.0 °F 91% 29.62 in 10.0 mi SSE 9.2 mph - 0.05 in Rain , Thunderstorm Light Thunderstorms and Rain
10:15 PM 54.1 °F - 52.3 °F 94% 29.62 in 10.0 mi South 9.2 mph - N/A   Overcast
10:35 PM 54.1 °F - 53.1 °F 96% 29.58 in 10.0 mi SE 9.2 mph - N/A   Mostly Cloudy
10:55 PM 53.6 °F - 53.6 °F 100% 29.56 in 10.0 mi SE 9.2 mph - N/A   Scattered Clouds
11:15 PM 53.1 °F - 53.1 °F 100% 29.55 in 10.0 mi SE 9.2 mph - N/A   Clear
11:35 PM 52.9 °F - 52.9 °F 100% 29.54 in 10.0 mi SSE 8.1 mph - N/A   Scattered Clouds
11:55 PM 53.1 °F - 53.1 °F 100% 29.52 in 10.0 mi SSE 8.1 mph 16.1 mph N/A   Scattered Clouds